sensor_id;sensor_type;location;lat;lon;timestamp;P1;durP1;ratioP1;P2;durP2;ratioP2
54193;SDS011;40102;50.906;6.972;2024-02-14T00:00:20;2.35;;;0.90;;
54193;SDS011;40102;50.906;6.972;2024-02-14T00:02:46;1.75;;;0.80;;
54193;SDS011;40102;50.906;6.972;2024-02-14T00:05:15;1.25;;;0.80;;
54193;SDS011;40102;50.906;6.972;2024-02-14T00:07:41;3.55;;;1.10;;
54193;SDS011;40102;50.906;6.972;2024-02-14T00:10:06;2.90;;;1.25;;
54193;SDS011;40102;50.906;6.972;2024-02-14T00:12:32;2.30;;;0.80;;
54193;SDS011;40102;50.906;6.972;2024-02-14T00:14:58;2.88;;;0.90;;
54193;SDS011;40102;50.906;6.972;2024-02-14T00:17:24;1.25;;;0.70;;
54193;SDS011;40102;50.906;6.972;2024-02-14T00:19:50;4.32;;;0.70;;
54193;SDS011;40102;50.906;6.972;2024-02-14T00:22:15;3.10;;;0.93;;
54193;SDS011;40102;50.906;6.972;2024-02-14T00:24:41;2.08;;;0.80;;
54193;SDS011;40102;50.906;6.972;2024-02-14T00:27:06;1.88;;;0.77;;
54193;SDS011;40102;50.906;6.972;2024-02-14T00:29:32;1.35;;;0.73;;
54193;SDS011;40102;50.906;6.972;2024-02-14T00:31:59;2.55;;;0.80;;
54193;SDS011;40102;50.906;6.972;2024-02-14T00:34:25;1.50;;;0.60;;
54193;SDS011;40102;50.906;6.972;2024-02-14T00:36:50;2.42;;;0.90;;
54193;SDS011;40102;50.906;6.972;2024-02-14T00:39:16;1.83;;;0.80;;
54193;SDS011;40102;50.906;6.972;2024-02-14T00:41:46;1.00;;;0.80;;
54193;SDS011;40102;50.906;6.972;2024-02-14T00:44:12;1.90;;;0.68;;
54193;SDS011;40102;50.906;6.972;2024-02-14T00:46:38;0.55;;;0.50;;
54193;SDS011;40102;50.906;6.972;2024-02-14T00:49:03;3.25;;;0.88;;
54193;SDS011;40102;50.906;6.972;2024-02-14T00:51:29;1.75;;;0.80;;
54193;SDS011;40102;50.906;6.972;2024-02-14T00:53:54;1.23;;;0.82;;
54193;SDS011;40102;50.906;6.972;2024-02-14T00:56:19;1.02;;;0.77;;
54193;SDS011;40102;50.906;6.972;2024-02-14T00:58:45;3.85;;;1.00;;
54193;SDS011;40102;50.906;6.972;2024-02-14T01:01:10;3.63;;;0.98;;
54193;SDS011;40102;50.906;6.972;2024-02-14T01:03:37;1.40;;;0.57;;
54193;SDS011;40102;50.906;6.972;2024-02-14T01:06:02;1.55;;;0.90;;
54193;SDS011;40102;50.906;6.972;2024-02-14T01:08:28;1.67;;;0.70;;
54193;SDS011;40102;50.906;6.972;2024-02-14T01:10:53;1.20;;;0.68;;
54193;SDS011;40102;50.906;6.972;2024-02-14T01:13:19;1.10;;;0.75;;
54193;SDS011;40102;50.906;6.972;2024-02-14T01:15:44;1.13;;;0.63;;
54193;SDS011;40102;50.906;6.972;2024-02-14T01:18:09;1.95;;;0.70;;
54193;SDS011;40102;50.906;6.972;2024-02-14T01:20:35;1.42;;;1.05;;
54193;SDS011;40102;50.906;6.972;2024-02-14T01:23:00;1.27;;;0.60;;
54193;SDS011;40102;50.906;6.972;2024-02-14T01:25:26;1.10;;;0.93;;
54193;SDS011;40102;50.906;6.972;2024-02-14T01:27:51;2.13;;;0.60;;
54193;SDS011;40102;50.906;6.972;2024-02-14T01:30:17;3.13;;;0.60;;
54193;SDS011;40102;50.906;6.972;2024-02-14T01:32:44;0.90;;;0.70;;
54193;SDS011;40102;50.906;6.972;2024-02-14T01:35:09;1.33;;;0.60;;
54193;SDS011;40102;50.906;6.972;2024-02-14T01:37:35;2.47;;;0.68;;
54193;SDS011;40102;50.906;6.972;2024-02-14T01:40:01;2.10;;;0.98;;
54193;SDS011;40102;50.906;6.972;2024-02-14T01:42:27;1.35;;;0.50;;
54193;SDS011;40102;50.906;6.972;2024-02-14T01:44:53;1.00;;;0.60;;
54193;SDS011;40102;50.906;6.972;2024-02-14T01:47:19;1.45;;;0.75;;
54193;SDS011;40102;50.906;6.972;2024-02-14T01:49:45;2.88;;;0.50;;
54193;SDS011;40102;50.906;6.972;2024-02-14T01:52:12;2.28;;;0.50;;
54193;SDS011;40102;50.906;6.972;2024-02-14T01:54:38;1.67;;;0.63;;
54193;SDS011;40102;50.906;6.972;2024-02-14T01:57:04;1.67;;;0.60;;
54193;SDS011;40102;50.906;6.972;2024-02-14T01:59:30;1.10;;;0.57;;
54193;SDS011;40102;50.906;6.972;2024-02-14T02:01:55;1.15;;;0.80;;
54193;SDS011;40102;50.906;6.972;2024-02-14T02:04:21;1.67;;;0.63;;
54193;SDS011;40102;50.906;6.972;2024-02-14T02:06:46;1.75;;;0.70;;
54193;SDS011;40102;50.906;6.972;2024-02-14T02:09:12;0.70;;;0.60;;
54193;SDS011;40102;50.906;6.972;2024-02-14T02:11:46;1.67;;;0.60;;
54193;SDS011;40102;50.906;6.972;2024-02-14T02:14:15;1.35;;;0.80;;
54193;SDS011;40102;50.906;6.972;2024-02-14T02:16:41;1.35;;;0.60;;
54193;SDS011;40102;50.906;6.972;2024-02-14T02:19:08;2.15;;;0.90;;
54193;SDS011;40102;50.906;6.972;2024-02-14T02:21:37;1.13;;;0.73;;
54193;SDS011;40102;50.906;6.972;2024-02-14T02:24:03;0.77;;;0.60;;
54193;SDS011;40102;50.906;6.972;2024-02-14T02:26:29;0.57;;;0.50;;
54193;SDS011;40102;50.906;6.972;2024-02-14T02:28:54;1.08;;;0.60;;
54193;SDS011;40102;50.906;6.972;2024-02-14T02:31:20;2.65;;;0.70;;
54193;SDS011;40102;50.906;6.972;2024-02-14T02:33:45;1.00;;;0.57;;
54193;SDS011;40102;50.906;6.972;2024-02-14T02:36:11;1.17;;;0.55;;
54193;SDS011;40102;50.906;6.972;2024-02-14T02:38:36;2.05;;;0.57;;
54193;SDS011;40102;50.906;6.972;2024-02-14T02:41:05;0.80;;;0.70;;
54193;SDS011;40102;50.906;6.972;2024-02-14T02:43:33;0.65;;;0.43;;
54193;SDS011;40102;50.906;6.972;2024-02-14T02:45:59;2.35;;;0.60;;
54193;SDS011;40102;50.906;6.972;2024-02-14T02:48:25;1.42;;;0.60;;
54193;SDS011;40102;50.906;6.972;2024-02-14T02:50:50;2.50;;;0.52;;
54193;SDS011;40102;50.906;6.972;2024-02-14T02:53:17;1.42;;;0.80;;
54193;SDS011;40102;50.906;6.972;2024-02-14T02:55:43;2.05;;;0.70;;
54193;SDS011;40102;50.906;6.972;2024-02-14T02:58:09;2.55;;;0.60;;
54193;SDS011;40102;50.906;6.972;2024-02-14T03:00:35;1.55;;;0.60;;
54193;SDS011;40102;50.906;6.972;2024-02-14T03:03:00;0.95;;;0.50;;
54193;SDS011;40102;50.906;6.972;2024-02-14T03:05:27;1.23;;;0.50;;
54193;SDS011;40102;50.906;6.972;2024-02-14T03:07:53;1.77;;;0.50;;
54193;SDS011;40102;50.906;6.972;2024-02-14T03:10:22;1.10;;;0.40;;
54193;SDS011;40102;50.906;6.972;2024-02-14T03:12:48;1.00;;;0.55;;
54193;SDS011;40102;50.906;6.972;2024-02-14T03:15:13;1.98;;;0.43;;
54193;SDS011;40102;50.906;6.972;2024-02-14T03:17:39;0.88;;;0.40;;
54193;SDS011;40102;50.906;6.972;2024-02-14T03:20:05;1.13;;;0.63;;
54193;SDS011;40102;50.906;6.972;2024-02-14T03:22:40;0.82;;;0.50;;
54193;SDS011;40102;50.906;6.972;2024-02-14T03:25:19;0.95;;;0.50;;
54193;SDS011;40102;50.906;6.972;2024-02-14T03:27:45;0.52;;;0.40;;
54193;SDS011;40102;50.906;6.972;2024-02-14T03:30:16;1.58;;;0.80;;
54193;SDS011;40102;50.906;6.972;2024-02-14T03:32:44;1.88;;;0.70;;
54193;SDS011;40102;50.906;6.972;2024-02-14T03:35:13;0.80;;;0.80;;
54193;SDS011;40102;50.906;6.972;2024-02-14T03:37:39;1.95;;;0.80;;
54193;SDS011;40102;50.906;6.972;2024-02-14T03:40:06;1.25;;;0.60;;
54193;SDS011;40102;50.906;6.972;2024-02-14T03:42:34;1.38;;;0.73;;
54193;SDS011;40102;50.906;6.972;2024-02-14T03:44:59;1.52;;;0.80;;
54193;SDS011;40102;50.906;6.972;2024-02-14T03:47:30;1.08;;;0.60;;
54193;SDS011;40102;50.906;6.972;2024-02-14T03:49:59;1.63;;;0.65;;
54193;SDS011;40102;50.906;6.972;2024-02-14T03:52:24;0.93;;;0.60;;
54193;SDS011;40102;50.906;6.972;2024-02-14T03:54:50;1.42;;;0.70;;
54193;SDS011;40102;50.906;6.972;2024-02-14T03:57:15;0.70;;;0.60;;
54193;SDS011;40102;50.906;6.972;2024-02-14T03:59:42;0.93;;;0.40;;
54193;SDS011;40102;50.906;6.972;2024-02-14T04:02:08;0.95;;;0.50;;
54193;SDS011;40102;50.906;6.972;2024-02-14T04:04:35;0.60;;;0.50;;
54193;SDS011;40102;50.906;6.972;2024-02-14T04:07:02;0.50;;;0.40;;
54193;SDS011;40102;50.906;6.972;2024-02-14T04:09:28;0.70;;;0.60;;
54193;SDS011;40102;50.906;6.972;2024-02-14T04:11:53;0.68;;;0.45;;
54193;SDS011;40102;50.906;6.972;2024-02-14T04:14:18;0.93;;;0.55;;
54193;SDS011;40102;50.906;6.972;2024-02-14T04:16:44;0.73;;;0.63;;
54193;SDS011;40102;50.906;6.972;2024-02-14T04:19:09;0.50;;;0.40;;
54193;SDS011;40102;50.906;6.972;2024-02-14T04:21:36;0.50;;;0.50;;
54193;SDS011;40102;50.906;6.972;2024-02-14T04:24:02;1.25;;;0.40;;
54193;SDS011;40102;50.906;6.972;2024-02-14T04:26:28;1.23;;;0.70;;
54193;SDS011;40102;50.906;6.972;2024-02-14T04:28:53;1.58;;;0.63;;
54193;SDS011;40102;50.906;6.972;2024-02-14T04:31:19;0.90;;;0.60;;
54193;SDS011;40102;50.906;6.972;2024-02-14T04:33:44;1.73;;;0.55;;
54193;SDS011;40102;50.906;6.972;2024-02-14T04:36:11;1.20;;;0.70;;
54193;SDS011;40102;50.906;6.972;2024-02-14T04:38:37;0.82;;;0.47;;
54193;SDS011;40102;50.906;6.972;2024-02-14T04:41:03;1.52;;;0.70;;
54193;SDS011;40102;50.906;6.972;2024-02-14T04:43:29;1.80;;;0.80;;
54193;SDS011;40102;50.906;6.972;2024-02-14T04:45:54;1.25;;;0.57;;
54193;SDS011;40102;50.906;6.972;2024-02-14T04:48:19;2.38;;;0.73;;
54193;SDS011;40102;50.906;6.972;2024-02-14T04:50:45;0.70;;;0.60;;
54193;SDS011;40102;50.906;6.972;2024-02-14T04:53:10;1.13;;;0.63;;
54193;SDS011;40102;50.906;6.972;2024-02-14T04:55:35;1.13;;;0.60;;
54193;SDS011;40102;50.906;6.972;2024-02-14T04:58:01;1.55;;;0.70;;
54193;SDS011;40102;50.906;6.972;2024-02-14T05:00:26;0.85;;;0.55;;
54193;SDS011;40102;50.906;6.972;2024-02-14T05:02:52;1.00;;;0.60;;
54193;SDS011;40102;50.906;6.972;2024-02-14T05:05:18;1.08;;;0.60;;
54193;SDS011;40102;50.906;6.972;2024-02-14T05:07:45;0.80;;;0.50;;
54193;SDS011;40102;50.906;6.972;2024-02-14T05:10:11;0.55;;;0.50;;
54193;SDS011;40102;50.906;6.972;2024-02-14T05:12:36;2.10;;;0.70;;
54193;SDS011;40102;50.906;6.972;2024-02-14T05:15:02;1.30;;;0.60;;
54193;SDS011;40102;50.906;6.972;2024-02-14T05:17:27;1.20;;;0.60;;
54193;SDS011;40102;50.906;6.972;2024-02-14T05:19:53;1.85;;;0.75;;
54193;SDS011;40102;50.906;6.972;2024-02-14T05:22:18;1.98;;;0.82;;
54193;SDS011;40102;50.906;6.972;2024-02-14T05:24:43;1.08;;;0.60;;
54193;SDS011;40102;50.906;6.972;2024-02-14T05:27:09;1.20;;;0.68;;
54193;SDS011;40102;50.906;6.972;2024-02-14T05:29:34;1.33;;;0.70;;
54193;SDS011;40102;50.906;6.972;2024-02-14T05:31:59;1.48;;;0.60;;
54193;SDS011;40102;50.906;6.972;2024-02-14T05:34:24;1.50;;;0.68;;
54193;SDS011;40102;50.906;6.972;2024-02-14T05:36:50;0.80;;;0.60;;
54193;SDS011;40102;50.906;6.972;2024-02-14T05:39:16;0.98;;;0.60;;
54193;SDS011;40102;50.906;6.972;2024-02-14T05:41:41;1.00;;;0.60;;
54193;SDS011;40102;50.906;6.972;2024-02-14T05:44:07;1.17;;;0.60;;
54193;SDS011;40102;50.906;6.972;2024-02-14T05:46:32;0.85;;;0.70;;
54193;SDS011;40102;50.906;6.972;2024-02-14T05:48:57;0.63;;;0.50;;
54193;SDS011;40102;50.906;6.972;2024-02-14T05:51:23;1.27;;;0.70;;
54193;SDS011;40102;50.906;6.972;2024-02-14T05:53:49;1.80;;;0.80;;
54193;SDS011;40102;50.906;6.972;2024-02-14T05:56:14;1.40;;;0.63;;
54193;SDS011;40102;50.906;6.972;2024-02-14T05:58:39;2.50;;;0.80;;
54193;SDS011;40102;50.906;6.972;2024-02-14T06:01:05;1.20;;;0.77;;
54193;SDS011;40102;50.906;6.972;2024-02-14T06:03:31;1.40;;;0.85;;
54193;SDS011;40102;50.906;6.972;2024-02-14T06:05:56;2.05;;;0.85;;
54193;SDS011;40102;50.906;6.972;2024-02-14T06:08:21;1.52;;;0.80;;
54193;SDS011;40102;50.906;6.972;2024-02-14T06:10:48;3.58;;;0.80;;
54193;SDS011;40102;50.906;6.972;2024-02-14T06:13:14;1.85;;;0.60;;
54193;SDS011;40102;50.906;6.972;2024-02-14T06:15:39;1.85;;;0.80;;
54193;SDS011;40102;50.906;6.972;2024-02-14T06:18:04;2.28;;;1.00;;
54193;SDS011;40102;50.906;6.972;2024-02-14T06:20:30;1.92;;;0.70;;
54193;SDS011;40102;50.906;6.972;2024-02-14T06:22:55;1.45;;;0.85;;
54193;SDS011;40102;50.906;6.972;2024-02-14T06:25:20;6.93;;;1.13;;
54193;SDS011;40102;50.906;6.972;2024-02-14T06:27:46;10.05;;;1.85;;
54193;SDS011;40102;50.906;6.972;2024-02-14T06:30:11;11.13;;;1.85;;
54193;SDS011;40102;50.906;6.972;2024-02-14T06:32:37;2.55;;;0.90;;
54193;SDS011;40102;50.906;6.972;2024-02-14T06:35:02;1.25;;;0.70;;
54193;SDS011;40102;50.906;6.972;2024-02-14T06:37:28;1.73;;;0.73;;
54193;SDS011;40102;50.906;6.972;2024-02-14T06:39:53;0.68;;;0.60;;
54193;SDS011;40102;50.906;6.972;2024-02-14T06:42:18;1.27;;;0.60;;
54193;SDS011;40102;50.906;6.972;2024-02-14T06:44:44;0.82;;;0.52;;
54193;SDS011;40102;50.906;6.972;2024-02-14T06:47:10;0.80;;;0.60;;
54193;SDS011;40102;50.906;6.972;2024-02-14T06:49:35;1.10;;;0.75;;
54193;SDS011;40102;50.906;6.972;2024-02-14T06:52:00;1.90;;;0.60;;
54193;SDS011;40102;50.906;6.972;2024-02-14T06:54:26;1.33;;;0.63;;
54193;SDS011;40102;50.906;6.972;2024-02-14T06:56:51;1.13;;;0.80;;
54193;SDS011;40102;50.906;6.972;2024-02-14T06:59:17;1.38;;;0.70;;
54193;SDS011;40102;50.906;6.972;2024-02-14T07:01:42;2.03;;;0.90;;
54193;SDS011;40102;50.906;6.972;2024-02-14T07:04:07;1.73;;;0.90;;
54193;SDS011;40102;50.906;6.972;2024-02-14T07:06:33;1.35;;;0.70;;
54193;SDS011;40102;50.906;6.972;2024-02-14T07:08:58;2.28;;;0.70;;
54193;SDS011;40102;50.906;6.972;2024-02-14T07:11:23;1.08;;;0.63;;
54193;SDS011;40102;50.906;6.972;2024-02-14T07:13:49;0.93;;;0.65;;
54193;SDS011;40102;50.906;6.972;2024-02-14T07:16:14;1.25;;;0.68;;
54193;SDS011;40102;50.906;6.972;2024-02-14T07:18:39;1.20;;;0.52;;
54193;SDS011;40102;50.906;6.972;2024-02-14T07:21:05;2.53;;;0.90;;
54193;SDS011;40102;50.906;6.972;2024-02-14T07:23:31;1.15;;;0.63;;
54193;SDS011;40102;50.906;6.972;2024-02-14T07:25:59;1.42;;;0.80;;
54193;SDS011;40102;50.906;6.972;2024-02-14T07:28:25;2.85;;;0.90;;
54193;SDS011;40102;50.906;6.972;2024-02-14T07:30:51;0.95;;;0.70;;
54193;SDS011;40102;50.906;6.972;2024-02-14T07:33:16;1.48;;;0.80;;
54193;SDS011;40102;50.906;6.972;2024-02-14T07:35:41;1.33;;;0.70;;
54193;SDS011;40102;50.906;6.972;2024-02-14T07:38:07;1.80;;;1.00;;
54193;SDS011;40102;50.906;6.972;2024-02-14T07:40:33;1.30;;;0.80;;
54193;SDS011;40102;50.906;6.972;2024-02-14T07:42:58;1.58;;;0.80;;
54193;SDS011;40102;50.906;6.972;2024-02-14T07:45:24;3.65;;;0.77;;
54193;SDS011;40102;50.906;6.972;2024-02-14T07:47:49;2.83;;;0.63;;
54193;SDS011;40102;50.906;6.972;2024-02-14T07:50:15;1.98;;;0.77;;
54193;SDS011;40102;50.906;6.972;2024-02-14T07:52:42;1.50;;;0.70;;
54193;SDS011;40102;50.906;6.972;2024-02-14T07:55:08;0.95;;;0.70;;
54193;SDS011;40102;50.906;6.972;2024-02-14T07:57:37;1.00;;;0.50;;
54193;SDS011;40102;50.906;6.972;2024-02-14T08:00:02;0.65;;;0.50;;
54193;SDS011;40102;50.906;6.972;2024-02-14T08:02:28;1.25;;;0.43;;
54193;SDS011;40102;50.906;6.972;2024-02-14T08:04:54;0.80;;;0.60;;
54193;SDS011;40102;50.906;6.972;2024-02-14T08:07:19;1.02;;;0.50;;
54193;SDS011;40102;50.906;6.972;2024-02-14T08:09:45;0.82;;;0.40;;
54193;SDS011;40102;50.906;6.972;2024-02-14T08:12:10;1.98;;;0.38;;
54193;SDS011;40102;50.906;6.972;2024-02-14T08:14:35;1.73;;;0.55;;
54193;SDS011;40102;50.906;6.972;2024-02-14T08:17:01;1.05;;;0.45;;
54193;SDS011;40102;50.906;6.972;2024-02-14T08:19:27;1.50;;;0.40;;
54193;SDS011;40102;50.906;6.972;2024-02-14T08:21:52;0.47;;;0.47;;
54193;SDS011;40102;50.906;6.972;2024-02-14T08:24:22;0.57;;;0.50;;
54193;SDS011;40102;50.906;6.972;2024-02-14T08:26:49;0.85;;;0.40;;
54193;SDS011;40102;50.906;6.972;2024-02-14T08:29:15;0.88;;;0.60;;
54193;SDS011;40102;50.906;6.972;2024-02-14T08:31:40;1.27;;;0.57;;
54193;SDS011;40102;50.906;6.972;2024-02-14T08:34:05;1.38;;;0.40;;
54193;SDS011;40102;50.906;6.972;2024-02-14T08:36:31;0.50;;;0.40;;
54193;SDS011;40102;50.906;6.972;2024-02-14T08:38:56;1.35;;;0.52;;
54193;SDS011;40102;50.906;6.972;2024-02-14T08:41:21;0.80;;;0.50;;
54193;SDS011;40102;50.906;6.972;2024-02-14T08:43:48;1.83;;;0.40;;
54193;SDS011;40102;50.906;6.972;2024-02-14T08:46:13;0.93;;;0.43;;
54193;SDS011;40102;50.906;6.972;2024-02-14T08:48:39;0.95;;;0.47;;
54193;SDS011;40102;50.906;6.972;2024-02-14T08:51:10;1.00;;;0.50;;
54193;SDS011;40102;50.906;6.972;2024-02-14T08:53:36;0.80;;;0.50;;
54193;SDS011;40102;50.906;6.972;2024-02-14T08:56:01;1.00;;;0.50;;
54193;SDS011;40102;50.906;6.972;2024-02-14T08:58:27;0.95;;;0.43;;
54193;SDS011;40102;50.906;6.972;2024-02-14T09:00:52;1.58;;;0.73;;
54193;SDS011;40102;50.906;6.972;2024-02-14T09:03:18;0.93;;;0.50;;
54193;SDS011;40102;50.906;6.972;2024-02-14T09:05:44;1.05;;;0.40;;
54193;SDS011;40102;50.906;6.972;2024-02-14T09:08:11;0.88;;;0.50;;
54193;SDS011;40102;50.906;6.972;2024-02-14T09:10:36;2.72;;;0.60;;
54193;SDS011;40102;50.906;6.972;2024-02-14T09:13:02;1.08;;;0.40;;
54193;SDS011;40102;50.906;6.972;2024-02-14T09:15:29;1.85;;;0.50;;
54193;SDS011;40102;50.906;6.972;2024-02-14T09:17:56;0.73;;;0.50;;
54193;SDS011;40102;50.906;6.972;2024-02-14T09:20:22;0.50;;;0.40;;
54193;SDS011;40102;50.906;6.972;2024-02-14T09:22:47;1.27;;;0.50;;
54193;SDS011;40102;50.906;6.972;2024-02-14T09:25:13;2.88;;;0.65;;
54193;SDS011;40102;50.906;6.972;2024-02-14T09:27:39;0.60;;;0.50;;
54193;SDS011;40102;50.906;6.972;2024-02-14T09:30:06;1.20;;;0.95;;
54193;SDS011;40102;50.906;6.972;2024-02-14T09:32:32;2.10;;;0.50;;
54193;SDS011;40102;50.906;6.972;2024-02-14T09:35:01;2.47;;;0.60;;
54193;SDS011;40102;50.906;6.972;2024-02-14T09:37:28;4.47;;;0.47;;
54193;SDS011;40102;50.906;6.972;2024-02-14T09:39:54;0.95;;;0.40;;
54193;SDS011;40102;50.906;6.972;2024-02-14T09:42:21;1.30;;;0.40;;
54193;SDS011;40102;50.906;6.972;2024-02-14T09:44:58;0.70;;;0.30;;
54193;SDS011;40102;50.906;6.972;2024-02-14T09:47:24;1.58;;;0.50;;
54193;SDS011;40102;50.906;6.972;2024-02-14T09:49:49;2.30;;;0.38;;
54193;SDS011;40102;50.906;6.972;2024-02-14T09:52:17;1.38;;;0.40;;
54193;SDS011;40102;50.906;6.972;2024-02-14T09:54:44;1.83;;;0.50;;
54193;SDS011;40102;50.906;6.972;2024-02-14T09:57:10;0.88;;;0.40;;
54193;SDS011;40102;50.906;6.972;2024-02-14T09:59:38;0.93;;;0.38;;
54193;SDS011;40102;50.906;6.972;2024-02-14T10:02:04;1.58;;;0.30;;
54193;SDS011;40102;50.906;6.972;2024-02-14T10:10:57;1.25;;;0.40;;
54193;SDS011;40102;50.906;6.972;2024-02-14T10:13:26;1.20;;;0.47;;
54193;SDS011;40102;50.906;6.972;2024-02-14T10:15:52;0.40;;;0.40;;
54193;SDS011;40102;50.906;6.972;2024-02-14T10:18:17;2.15;;;0.40;;
54193;SDS011;40102;50.906;6.972;2024-02-14T10:20:52;0.55;;;0.40;;
54193;SDS011;40102;50.906;6.972;2024-02-14T10:23:18;0.93;;;0.28;;
54193;SDS011;40102;50.906;6.972;2024-02-14T10:25:45;1.95;;;0.40;;
54193;SDS011;40102;50.906;6.972;2024-02-14T10:28:10;1.48;;;0.50;;
54193;SDS011;40102;50.906;6.972;2024-02-14T10:30:35;3.15;;;1.05;;
54193;SDS011;40102;50.906;6.972;2024-02-14T10:33:05;1.10;;;0.70;;
54193;SDS011;40102;50.906;6.972;2024-02-14T10:35:32;2.92;;;0.60;;
54193;SDS011;40102;50.906;6.972;2024-02-14T10:38:01;1.80;;;0.65;;
54193;SDS011;40102;50.906;6.972;2024-02-14T10:40:27;1.02;;;0.55;;
54193;SDS011;40102;50.906;6.972;2024-02-14T10:42:53;1.42;;;0.70;;
54193;SDS011;40102;50.906;6.972;2024-02-14T10:45:19;1.20;;;0.50;;
54193;SDS011;40102;50.906;6.972;2024-02-14T10:47:45;1.00;;;0.65;;
54193;SDS011;40102;50.906;6.972;2024-02-14T10:50:14;1.17;;;0.55;;
54193;SDS011;40102;50.906;6.972;2024-02-14T10:52:40;1.55;;;0.50;;
54193;SDS011;40102;50.906;6.972;2024-02-14T10:55:06;2.17;;;0.50;;
54193;SDS011;40102;50.906;6.972;2024-02-14T10:57:34;4.10;;;0.75;;
54193;SDS011;40102;50.906;6.972;2024-02-14T11:00:00;1.63;;;0.50;;
54193;SDS011;40102;50.906;6.972;2024-02-14T11:02:34;2.42;;;1.20;;
54193;SDS011;40102;50.906;6.972;2024-02-14T11:05:01;1.25;;;0.55;;
54193;SDS011;40102;50.906;6.972;2024-02-14T11:07:27;2.17;;;0.52;;
54193;SDS011;40102;50.906;6.972;2024-02-14T11:10:00;4.70;;;0.50;;
54193;SDS011;40102;50.906;6.972;2024-02-14T11:12:32;9.32;;;0.55;;
54193;SDS011;40102;50.906;6.972;2024-02-14T11:15:01;4.43;;;0.80;;
54193;SDS011;40102;50.906;6.972;2024-02-14T11:17:48;0.85;;;0.38;;
54193;SDS011;40102;50.906;6.972;2024-02-14T11:20:21;1.92;;;0.52;;
54193;SDS011;40102;50.906;6.972;2024-02-14T11:23:05;0.60;;;0.40;;
54193;SDS011;40102;50.906;6.972;2024-02-14T11:25:34;0.80;;;0.40;;
54193;SDS011;40102;50.906;6.972;2024-02-14T11:28:00;1.83;;;0.55;;
54193;SDS011;40102;50.906;6.972;2024-02-14T11:30:39;0.85;;;0.43;;
54193;SDS011;40102;50.906;6.972;2024-02-14T11:33:23;2.03;;;0.40;;
54193;SDS011;40102;50.906;6.972;2024-02-14T11:35:49;3.92;;;0.50;;
54193;SDS011;40102;50.906;6.972;2024-02-14T11:38:16;1.35;;;0.50;;
54193;SDS011;40102;50.906;6.972;2024-02-14T11:40:42;1.05;;;0.30;;
54193;SDS011;40102;50.906;6.972;2024-02-14T11:43:15;0.57;;;0.40;;
54193;SDS011;40102;50.906;6.972;2024-02-14T11:45:48;1.45;;;0.98;;
54193;SDS011;40102;50.906;6.972;2024-02-14T11:48:19;1.55;;;0.30;;
54193;SDS011;40102;50.906;6.972;2024-02-14T11:50:46;2.33;;;0.40;;
54193;SDS011;40102;50.906;6.972;2024-02-14T11:53:12;0.75;;;0.38;;
54193;SDS011;40102;50.906;6.972;2024-02-14T11:55:39;0.80;;;0.25;;
54193;SDS011;40102;50.906;6.972;2024-02-14T12:00:41;2.17;;;0.45;;
54193;SDS011;40102;50.906;6.972;2024-02-14T12:03:08;1.77;;;0.32;;
54193;SDS011;40102;50.906;6.972;2024-02-14T12:05:36;0.68;;;0.28;;
54193;SDS011;40102;50.906;6.972;2024-02-14T12:08:02;1.15;;;0.20;;
54193;SDS011;40102;50.906;6.972;2024-02-14T12:10:31;1.20;;;0.20;;
54193;SDS011;40102;50.906;6.972;2024-02-14T12:12:57;0.82;;;0.20;;
54193;SDS011;40102;50.906;6.972;2024-02-14T12:15:24;0.63;;;0.30;;
54193;SDS011;40102;50.906;6.972;2024-02-14T12:17:51;0.77;;;0.20;;
54193;SDS011;40102;50.906;6.972;2024-02-14T12:20:16;0.65;;;0.30;;
54193;SDS011;40102;50.906;6.972;2024-02-14T12:25:15;0.20;;;0.20;;
54193;SDS011;40102;50.906;6.972;2024-02-14T12:27:40;1.15;;;0.30;;
54193;SDS011;40102;50.906;6.972;2024-02-14T12:30:06;0.63;;;0.28;;
54193;SDS011;40102;50.906;6.972;2024-02-14T12:32:32;0.85;;;0.50;;
54193;SDS011;40102;50.906;6.972;2024-02-14T12:34:58;0.32;;;0.30;;
54193;SDS011;40102;50.906;6.972;2024-02-14T12:37:24;1.05;;;0.30;;
54193;SDS011;40102;50.906;6.972;2024-02-14T12:39:50;0.25;;;0.20;;
54193;SDS011;40102;50.906;6.972;2024-02-14T12:42:15;0.20;;;0.20;;
54193;SDS011;40102;50.906;6.972;2024-02-14T12:44:43;0.30;;;0.30;;
54193;SDS011;40102;50.906;6.972;2024-02-14T12:47:08;0.52;;;0.20;;
54193;SDS011;40102;50.906;6.972;2024-02-14T12:49:34;0.43;;;0.30;;
54193;SDS011;40102;50.906;6.972;2024-02-14T12:51:59;0.85;;;0.30;;
54193;SDS011;40102;50.906;6.972;2024-02-14T12:54:24;2.38;;;0.52;;
54193;SDS011;40102;50.906;6.972;2024-02-14T12:56:51;0.65;;;0.22;;
54193;SDS011;40102;50.906;6.972;2024-02-14T12:59:17;0.25;;;0.20;;
54193;SDS011;40102;50.906;6.972;2024-02-14T13:01:43;0.88;;;0.30;;
54193;SDS011;40102;50.906;6.972;2024-02-14T13:04:09;0.32;;;0.30;;
54193;SDS011;40102;50.906;6.972;2024-02-14T13:06:34;0.40;;;0.40;;
54193;SDS011;40102;50.906;6.972;2024-02-14T13:09:01;0.88;;;0.32;;
54193;SDS011;40102;50.906;6.972;2024-02-14T13:11:27;0.88;;;0.40;;
54193;SDS011;40102;50.906;6.972;2024-02-14T13:13:53;0.30;;;0.30;;
54193;SDS011;40102;50.906;6.972;2024-02-14T13:16:19;0.60;;;0.28;;
54193;SDS011;40102;50.906;6.972;2024-02-14T13:18:44;0.80;;;0.50;;
54193;SDS011;40102;50.906;6.972;2024-02-14T13:21:10;1.20;;;0.50;;
54193;SDS011;40102;50.906;6.972;2024-02-14T13:23:35;0.30;;;0.30;;
54193;SDS011;40102;50.906;6.972;2024-02-14T13:26:00;0.98;;;0.50;;
54193;SDS011;40102;50.906;6.972;2024-02-14T13:28:30;0.80;;;0.50;;
54193;SDS011;40102;50.906;6.972;2024-02-14T13:30:55;0.88;;;0.30;;
54193;SDS011;40102;50.906;6.972;2024-02-14T13:33:20;0.65;;;0.32;;
54193;SDS011;40102;50.906;6.972;2024-02-14T13:35:46;1.00;;;0.40;;
54193;SDS011;40102;50.906;6.972;2024-02-14T13:38:11;0.77;;;0.40;;
54193;SDS011;40102;50.906;6.972;2024-02-14T13:40:36;0.60;;;0.43;;
54193;SDS011;40102;50.906;6.972;2024-02-14T13:43:02;1.20;;;0.50;;
54193;SDS011;40102;50.906;6.972;2024-02-14T13:45:30;0.90;;;0.50;;
54193;SDS011;40102;50.906;6.972;2024-02-14T13:48:07;1.25;;;0.40;;
54193;SDS011;40102;50.906;6.972;2024-02-14T13:50:33;0.73;;;0.30;;
54193;SDS011;40102;50.906;6.972;2024-02-14T13:52:59;0.55;;;0.43;;
54193;SDS011;40102;50.906;6.972;2024-02-14T13:55:24;0.60;;;0.40;;
54193;SDS011;40102;50.906;6.972;2024-02-14T13:57:50;0.50;;;0.30;;
54193;SDS011;40102;50.906;6.972;2024-02-14T14:00:15;1.27;;;0.43;;
54193;SDS011;40102;50.906;6.972;2024-02-14T14:02:41;1.13;;;0.40;;
54193;SDS011;40102;50.906;6.972;2024-02-14T14:05:08;0.50;;;0.30;;
54193;SDS011;40102;50.906;6.972;2024-02-14T14:07:34;2.90;;;0.40;;
54193;SDS011;40102;50.906;6.972;2024-02-14T14:10:01;1.40;;;0.30;;
54193;SDS011;40102;50.906;6.972;2024-02-14T14:12:27;0.60;;;0.40;;
54193;SDS011;40102;50.906;6.972;2024-02-14T14:14:53;0.65;;;0.40;;
54193;SDS011;40102;50.906;6.972;2024-02-14T14:17:18;1.67;;;0.40;;
54193;SDS011;40102;50.906;6.972;2024-02-14T14:19:43;2.40;;;0.40;;
54193;SDS011;40102;50.906;6.972;2024-02-14T14:22:08;0.88;;;0.50;;
54193;SDS011;40102;50.906;6.972;2024-02-14T14:24:34;2.83;;;0.57;;
54193;SDS011;40102;50.906;6.972;2024-02-14T14:26:59;1.05;;;0.60;;
54193;SDS011;40102;50.906;6.972;2024-02-14T14:29:25;2.47;;;0.60;;
54193;SDS011;40102;50.906;6.972;2024-02-14T14:31:50;2.40;;;0.70;;
54193;SDS011;40102;50.906;6.972;2024-02-14T14:34:16;1.35;;;0.80;;
54193;SDS011;40102;50.906;6.972;2024-02-14T14:36:41;0.70;;;0.50;;
54193;SDS011;40102;50.906;6.972;2024-02-14T14:39:06;0.95;;;0.65;;
54193;SDS011;40102;50.906;6.972;2024-02-14T14:41:31;2.38;;;0.90;;
54193;SDS011;40102;50.906;6.972;2024-02-14T14:43:57;1.05;;;0.70;;
54193;SDS011;40102;50.906;6.972;2024-02-14T14:46:22;1.00;;;0.60;;
54193;SDS011;40102;50.906;6.972;2024-02-14T14:48:48;1.13;;;0.68;;
54193;SDS011;40102;50.906;6.972;2024-02-14T14:51:13;1.30;;;0.75;;
54193;SDS011;40102;50.906;6.972;2024-02-14T14:53:38;2.55;;;0.70;;